createdAt,value
2018-07-23T00:00:03.432Z,96659.00
2018-07-23T00:02:36.542Z,96650.00
2018-07-23T00:05:05.702Z,96655.00
2018-07-23T00:07:34.654Z,96653.00
2018-07-23T00:10:02.775Z,96647.00
2018-07-23T00:12:30.727Z,96648.00
2018-07-23T00:14:58.802Z,96645.00
2018-07-23T00:17:26.839Z,96643.00
2018-07-23T00:19:54.803Z,96649.00
2018-07-23T00:22:22.770Z,96649.00
2018-07-23T00:24:50.722Z,96641.00
2018-07-23T00:27:18.722Z,96643.00
2018-07-23T00:29:46.676Z,96643.00
2018-07-23T00:32:14.755Z,96640.00
2018-07-23T00:34:42.884Z,96645.00
2018-07-23T00:37:10.915Z,96642.00
2018-07-23T00:39:38.906Z,96643.00
2018-07-23T00:42:06.852Z,96635.00
2018-07-23T00:44:34.782Z,96646.00
2018-07-23T00:47:02.796Z,96643.00
2018-07-23T00:49:30.750Z,96645.00
2018-07-23T00:51:58.733Z,96644.00
2018-07-23T00:54:26.687Z,96634.00
2018-07-23T00:56:54.852Z,96635.00
2018-07-23T00:59:22.833Z,96640.00
2018-07-23T01:01:50.864Z,96631.00
2018-07-23T01:04:18.908Z,96631.00
2018-07-23T01:06:46.958Z,96628.00
2018-07-23T01:09:14.922Z,96626.00
2018-07-23T01:11:42.938Z,96620.00
2018-07-23T01:14:11.142Z,96622.00
2018-07-23T01:16:39.152Z,96622.00
2018-07-23T01:19:07.292Z,96618.00
2018-07-23T01:21:35.301Z,96612.00
2018-07-23T01:24:03.331Z,96611.00
2018-07-23T01:26:31.306Z,96612.00
2018-07-23T01:28:59.289Z,96610.00
2018-07-23T01:31:27.265Z,96601.00
2018-07-23T01:33:55.278Z,96609.00
2018-07-23T01:36:23.284Z,96617.00
2018-07-23T01:38:51.297Z,96617.00
2018-07-23T01:41:19.328Z,96611.00
2018-07-23T01:43:47.450Z,96614.00
2018-07-23T01:46:15.568Z,96614.00
2018-07-23T01:48:43.499Z,96616.00
2018-07-23T01:51:11.483Z,96619.00
2018-07-23T01:53:39.427Z,96632.00
2018-07-23T01:56:07.379Z,96633.00
2018-07-23T01:58:35.407Z,96626.00
2018-07-23T02:01:12.445Z,96632.00
2018-07-23T02:03:41.428Z,96634.00
2018-07-23T02:06:09.717Z,96636.00
2018-07-23T02:08:37.735Z,96627.00
2018-07-23T02:11:06.419Z,96634.00
2018-07-23T02:13:34.447Z,96632.00
2018-07-23T02:16:02.480Z,96632.00
2018-07-23T02:18:30.725Z,96632.00
2018-07-23T02:20:58.793Z,96630.00
2018-07-23T02:23:26.748Z,96627.00
2018-07-23T02:25:54.853Z,96628.00
2018-07-23T02:28:22.815Z,96626.00
2018-07-23T02:30:50.966Z,96627.00
2018-07-23T02:33:18.979Z,96631.00
2018-07-23T02:35:46.993Z,96624.00
2018-07-23T02:38:14.954Z,96631.00
2018-07-23T02:40:42.942Z,96627.00
2018-07-23T02:43:10.929Z,96623.00
2018-07-23T02:45:38.978Z,96633.00
2018-07-23T02:48:06.979Z,96623.00
2018-07-23T02:50:35.184Z,96621.00
2018-07-23T02:53:03.209Z,96635.00
2018-07-23T02:55:31.295Z,96631.00
2018-07-23T02:57:59.292Z,96623.00
2018-07-23T03:00:27.320Z,96626.00
2018-07-23T03:02:55.482Z,96637.00
2018-07-23T03:05:23.522Z,96626.00
2018-07-23T03:07:51.607Z,96624.00
2018-07-23T03:10:19.675Z,96625.00
2018-07-23T03:12:47.649Z,96627.00
2018-07-23T03:15:15.611Z,96634.00
2018-07-23T03:17:43.584Z,96636.00
2018-07-23T03:20:11.832Z,96634.00
2018-07-23T03:22:39.827Z,96643.00
2018-07-23T03:25:07.932Z,96650.00
2018-07-23T03:27:35.923Z,96642.00
2018-07-23T03:30:04.373Z,96645.00
2018-07-23T03:32:32.380Z,96645.00
2018-07-23T03:35:00.393Z,96648.00
2018-07-23T03:37:28.355Z,96649.00
2018-07-23T03:39:56.459Z,96652.00
2018-07-23T03:42:24.464Z,96662.00
2018-07-23T03:44:52.479Z,96662.00
2018-07-23T03:47:20.498Z,96665.00
2018-07-23T03:49:48.494Z,96655.00
2018-07-23T03:52:16.430Z,96664.00
2018-07-23T03:54:45.076Z,96661.00
2018-07-23T03:57:13.188Z,96653.00
2018-07-23T03:59:41.280Z,96661.00
2018-07-23T04:02:09.437Z,96659.00
2018-07-23T04:04:37.467Z,96666.00
2018-07-23T04:07:05.614Z,96670.00
2018-07-23T04:09:33.729Z,96672.00
2018-07-23T04:12:01.940Z,96675.00
2018-07-23T04:14:30.040Z,96679.00
2018-07-23T04:16:58.138Z,96683.00
2018-07-23T04:19:26.129Z,96688.00
2018-07-23T04:21:54.133Z,96692.00
2018-07-23T04:24:22.109Z,96695.00
2018-07-23T04:26:50.171Z,96690.00
2018-07-23T04:29:18.225Z,96690.00
2018-07-23T04:31:46.247Z,96696.00
2018-07-23T04:34:14.278Z,96698.00
2018-07-23T04:36:42.206Z,96704.00
2018-07-23T04:39:10.263Z,96701.00
2018-07-23T04:41:38.287Z,96702.00
2018-07-23T04:44:06.302Z,96708.00
2018-07-23T04:46:34.354Z,96699.00
2018-07-23T04:49:02.346Z,96698.00
2018-07-23T04:51:30.383Z,96690.00
2018-07-23T04:53:58.415Z,96693.00
2018-07-23T04:56:26.450Z,96696.00
2018-07-23T04:58:54.448Z,96691.00
2018-07-23T05:01:22.445Z,96687.00
2018-07-23T05:03:50.496Z,96694.00
2018-07-23T05:06:18.471Z,96701.00
2018-07-23T05:08:46.521Z,96698.00
2018-07-23T05:11:14.470Z,96697.00
2018-07-23T05:13:42.532Z,96701.00
2018-07-23T05:16:10.601Z,96694.00
2018-07-23T05:18:38.620Z,96700.00
2018-07-23T05:21:06.744Z,96697.00
2018-07-23T05:23:34.741Z,96697.00
2018-07-23T05:26:02.790Z,96701.00
2018-07-23T05:28:30.727Z,96706.00
2018-07-23T05:30:58.752Z,96704.00
2018-07-23T05:33:26.756Z,96705.00
2018-07-23T05:35:54.768Z,96715.00
2018-07-23T05:38:22.835Z,96704.00
2018-07-23T05:40:51.910Z,96706.00
2018-07-23T05:43:20.413Z,96709.00
2018-07-23T05:45:48.512Z,96714.00
2018-07-23T05:48:16.465Z,96712.00
2018-07-23T05:50:44.445Z,96715.00
2018-07-23T05:53:12.479Z,96714.00
2018-07-23T05:55:40.505Z,96715.00
2018-07-23T05:58:09.279Z,96726.00
2018-07-23T06:00:37.300Z,96728.00
2018-07-23T06:03:05.566Z,96733.00
2018-07-23T06:05:33.572Z,96728.00
2018-07-23T06:08:03.007Z,96731.00
2018-07-23T06:10:32.617Z,96739.00
2018-07-23T06:13:00.949Z,96733.00
2018-07-23T06:15:28.912Z,96729.00
2018-07-23T06:17:57.001Z,96728.00
2018-07-23T06:20:24.998Z,96731.00
2018-07-23T06:22:53.044Z,96739.00
2018-07-23T06:25:21.080Z,96736.00
2018-07-23T06:27:49.070Z,96744.00
2018-07-23T06:30:17.191Z,96745.00
2018-07-23T06:32:45.171Z,96752.00
2018-07-23T06:35:13.140Z,96750.00
2018-07-23T06:37:41.236Z,96753.00
2018-07-23T06:40:09.162Z,96762.00
2018-07-23T06:42:37.137Z,96754.00
2018-07-23T06:45:05.162Z,96760.00
2018-07-23T06:47:33.217Z,96750.00
2018-07-23T06:50:01.184Z,96759.00
2018-07-23T06:52:29.182Z,96758.00
2018-07-23T06:54:57.142Z,96756.00
2018-07-23T06:57:25.124Z,96756.00
2018-07-23T06:59:53.137Z,96755.00
2018-07-23T07:02:21.088Z,96761.00
2018-07-23T07:04:49.108Z,96766.00
2018-07-23T07:07:17.075Z,96771.00
2018-07-23T07:09:45.102Z,96771.00
2018-07-23T07:12:13.091Z,96771.00
2018-07-23T07:14:41.072Z,96775.00
2018-07-23T07:17:09.043Z,96776.00
2018-07-23T07:19:37.034Z,96768.00
2018-07-23T07:22:05.043Z,96772.00
2018-07-23T07:24:32.959Z,96771.00
2018-07-23T07:27:00.924Z,96775.00
2018-07-23T07:29:28.895Z,96767.00
2018-07-23T07:31:56.833Z,96766.00
2018-07-23T07:34:24.812Z,96769.00
2018-07-23T07:36:52.832Z,96760.00
2018-07-23T07:39:20.860Z,96773.00
2018-07-23T07:41:48.818Z,96769.00
2018-07-23T07:44:16.785Z,96764.00
2018-07-23T07:46:44.772Z,96760.00
2018-07-23T07:49:12.745Z,96755.00
2018-07-23T07:51:40.714Z,96759.00
2018-07-23T07:54:08.675Z,96762.00
2018-07-23T07:56:36.652Z,96762.00
2018-07-23T07:59:04.729Z,96766.00
2018-07-23T08:01:32.659Z,96773.00
2018-07-23T08:04:00.636Z,96770.00
2018-07-23T08:06:28.577Z,96767.00
2018-07-23T08:08:56.582Z,96783.00
2018-07-23T08:11:24.566Z,96787.00
2018-07-23T08:13:52.527Z,96797.00
2018-07-23T08:16:20.493Z,96798.00
2018-07-23T08:18:48.439Z,96801.00
2018-07-23T08:21:16.416Z,96798.00
2018-07-23T08:23:44.399Z,96797.00
2018-07-23T08:26:12.646Z,96775.00
2018-07-23T08:28:40.676Z,96765.00
2018-07-23T08:31:08.609Z,96765.00
2018-07-23T08:33:36.549Z,96772.00
2018-07-23T08:36:04.631Z,96774.00
2018-07-23T08:38:32.638Z,96781.00
2018-07-23T08:41:00.552Z,96775.00
2018-07-23T08:43:28.550Z,96783.00
2018-07-23T08:45:56.582Z,96788.00
2018-07-23T08:48:24.583Z,96800.00
2018-07-23T08:50:52.544Z,96805.00
2018-07-23T08:53:20.551Z,96803.00
2018-07-23T08:55:48.479Z,96804.00
2018-07-23T08:58:16.404Z,96808.00
2018-07-23T09:00:44.388Z,96806.00
2018-07-23T09:03:12.337Z,96810.00
2018-07-23T09:05:40.296Z,96805.00
2018-07-23T09:08:08.211Z,96806.00
2018-07-23T09:10:36.166Z,96811.00
2018-07-23T09:13:04.134Z,96813.00
2018-07-23T09:15:32.048Z,96796.00
2018-07-23T09:18:00.052Z,96800.00
2018-07-23T09:20:27.977Z,96791.00
2018-07-23T09:22:55.945Z,96806.00
2018-07-23T09:25:43.421Z,96803.00
2018-07-23T09:28:11.393Z,96820.00
2018-07-23T09:30:52.689Z,96820.00
2018-07-23T09:33:21.922Z,96827.00
2018-07-23T09:35:50.580Z,96825.00
2018-07-23T09:38:18.866Z,96825.00
2018-07-23T09:40:46.839Z,96823.00
2018-07-23T09:43:14.772Z,96809.00
2018-07-23T09:45:43.245Z,96816.00
2018-07-23T09:48:11.115Z,96813.00
2018-07-23T09:50:39.048Z,96804.00
2018-07-23T09:53:07.030Z,96810.00
2018-07-23T09:55:34.996Z,96827.00
2018-07-23T09:58:02.957Z,96818.00
2018-07-23T10:00:49.139Z,96824.00
2018-07-23T10:03:17.184Z,96821.00
2018-07-23T10:05:45.057Z,96824.00
2018-07-23T10:08:12.965Z,96833.00
2018-07-23T10:10:40.952Z,96832.00
2018-07-23T10:13:08.882Z,96829.00
2018-07-23T10:15:36.877Z,96808.00
2018-07-23T10:18:04.837Z,96805.00
2018-07-23T10:20:32.836Z,96801.00
2018-07-23T10:23:00.832Z,96801.00
2018-07-23T10:25:28.780Z,96811.00
2018-07-23T10:27:56.818Z,96799.00
2018-07-23T10:30:24.729Z,96812.00
2018-07-23T10:32:52.703Z,96814.00
2018-07-23T10:35:21.079Z,96805.00
2018-07-23T10:37:49.011Z,96807.00
2018-07-23T10:40:16.977Z,96815.00
2018-07-23T10:42:45.019Z,96811.00
2018-07-23T10:45:12.981Z,96803.00
2018-07-23T10:47:40.938Z,96801.00
2018-07-23T10:50:08.875Z,96803.00
2018-07-23T10:52:36.859Z,96801.00
2018-07-23T10:55:04.864Z,96796.00
2018-07-23T10:57:32.841Z,96797.00
2018-07-23T11:00:00.761Z,96788.00
2018-07-23T11:02:28.718Z,96791.00
2018-07-23T11:04:56.658Z,96789.00
2018-07-23T11:07:24.684Z,96795.00
2018-07-23T11:09:52.667Z,96792.00
2018-07-23T11:12:20.589Z,96791.00
2018-07-23T11:14:48.615Z,96792.00
2018-07-23T11:17:16.564Z,96788.00
2018-07-23T11:19:44.526Z,96784.00
2018-07-23T11:22:12.501Z,96785.00
2018-07-23T11:24:45.444Z,96774.00
2018-07-23T11:27:08.601Z,96787.00
2018-07-23T11:29:36.535Z,96792.00
2018-07-23T11:32:04.580Z,96782.00
2018-07-23T11:34:32.518Z,96791.00
2018-07-23T11:37:00.480Z,96766.00
2018-07-23T11:39:28.470Z,96771.00
2018-07-23T11:41:56.424Z,96777.00
2018-07-23T11:44:24.388Z,96764.00
2018-07-23T11:46:52.307Z,96751.00
2018-07-23T11:49:20.281Z,96744.00
2018-07-23T11:51:48.212Z,96730.00
2018-07-23T11:54:16.143Z,96749.00
2018-07-23T11:56:44.175Z,96760.00
2018-07-23T11:59:12.076Z,96763.00
2018-07-23T12:01:40.109Z,96754.00
2018-07-23T12:04:10.406Z,96763.00
2018-07-23T12:06:35.932Z,96734.00
2018-07-23T12:09:07.345Z,96735.00
2018-07-23T12:11:35.340Z,96724.00
2018-07-23T12:14:03.459Z,96730.00
2018-07-23T12:16:31.397Z,96732.00
2018-07-23T12:18:59.396Z,96740.00
2018-07-23T12:21:27.364Z,96723.00
2018-07-23T12:23:55.333Z,96729.00
2018-07-23T12:26:23.274Z,96723.00
2018-07-23T12:28:51.328Z,96718.00
2018-07-23T12:31:19.316Z,96732.00
2018-07-23T12:33:47.268Z,96714.00
2018-07-23T12:36:15.229Z,96715.00
2018-07-23T12:38:43.172Z,96725.00
2018-07-23T12:41:11.143Z,96756.00
2018-07-23T12:43:39.065Z,96709.00
2018-07-23T12:46:07.001Z,96714.00
2018-07-23T12:48:34.971Z,96732.00
2018-07-23T12:51:02.933Z,96756.00
2018-07-23T12:53:30.907Z,96715.00
2018-07-23T12:55:58.845Z,96746.00
2018-07-23T12:58:26.771Z,96736.00
2018-07-23T13:00:54.722Z,96711.00
2018-07-23T13:03:22.638Z,96752.00
2018-07-23T13:05:50.597Z,96760.00
2018-07-23T13:08:18.528Z,96710.00
2018-07-23T13:10:46.495Z,96713.00
2018-07-23T13:13:14.493Z,96724.00
2018-07-23T13:15:42.497Z,96721.00
2018-07-23T13:18:10.458Z,96726.00
2018-07-23T13:20:38.377Z,96727.00
2018-07-23T13:23:06.337Z,96732.00
2018-07-23T13:25:34.320Z,96717.00
2018-07-23T13:28:02.224Z,96723.00
2018-07-23T13:30:30.161Z,96714.00
2018-07-23T13:32:58.108Z,96709.00
2018-07-23T13:35:26.386Z,96717.00
2018-07-23T13:37:54.336Z,96719.00
2018-07-23T13:40:22.277Z,96710.00
2018-07-23T13:42:50.206Z,96716.00
2018-07-23T13:45:18.167Z,96718.00
2018-07-23T13:47:46.148Z,96716.00
2018-07-23T13:50:14.082Z,96708.00
2018-07-23T13:52:42.057Z,96708.00
2018-07-23T13:55:10.025Z,96700.00
2018-07-23T13:57:37.982Z,96706.00
2018-07-23T14:00:06.373Z,96696.00
2018-07-23T14:02:34.304Z,96706.00
2018-07-23T14:05:02.326Z,96709.00
2018-07-23T14:07:30.254Z,96700.00
2018-07-23T14:09:58.258Z,96712.00
2018-07-23T14:12:26.187Z,96702.00
2018-07-23T14:14:54.205Z,96708.00
2018-07-23T14:17:22.134Z,96701.00
2018-07-23T14:19:50.049Z,96691.00
2018-07-23T14:22:18.046Z,96690.00
2018-07-23T14:24:45.953Z,96683.00
2018-07-23T14:27:13.896Z,96678.00
2018-07-23T14:29:41.845Z,96684.00
2018-07-23T14:32:09.783Z,96685.00
2018-07-23T14:34:37.707Z,96686.00
2018-07-23T14:37:05.629Z,96589.00
2018-07-23T14:39:33.616Z,96400.00
2018-07-23T14:42:01.552Z,96406.00
2018-07-23T14:44:29.541Z,96401.00
2018-07-23T14:46:57.480Z,96389.00
2018-07-23T14:49:25.412Z,96400.00
2018-07-23T14:51:53.376Z,96391.00
2018-07-23T14:54:21.312Z,96392.00
2018-07-23T14:56:49.267Z,96389.00
2018-07-23T14:59:17.206Z,96392.00
2018-07-23T15:01:45.206Z,96385.00
2018-07-23T15:04:13.165Z,96398.00
2018-07-23T15:06:41.101Z,96387.00
2018-07-23T15:09:09.742Z,96395.00
2018-07-23T15:11:37.785Z,96398.00
2018-07-23T15:14:05.860Z,96377.00
2018-07-23T15:16:33.948Z,96381.00
2018-07-23T15:19:01.982Z,96380.00
2018-07-23T15:21:30.385Z,96377.00
2018-07-23T15:23:58.468Z,96372.00
2018-07-23T15:26:26.720Z,96363.00
2018-07-23T15:28:54.727Z,96348.00
2018-07-23T15:31:22.673Z,96560.00
2018-07-23T15:33:50.663Z,96670.00
2018-07-23T15:36:18.585Z,96665.00
2018-07-23T15:38:46.741Z,96672.00
2018-07-23T15:41:14.716Z,96678.00
2018-07-23T15:43:42.676Z,96683.00
2018-07-23T15:46:10.663Z,96688.00
2018-07-23T15:48:38.569Z,96736.00
2018-07-23T15:51:06.536Z,96693.00
2018-07-23T15:53:34.462Z,96691.00
2018-07-23T15:56:02.424Z,96743.00
2018-07-23T15:58:30.398Z,96678.00
2018-07-23T16:00:58.325Z,96684.00
2018-07-23T16:03:26.319Z,96678.00
2018-07-23T16:05:54.246Z,96687.00
2018-07-23T16:08:22.251Z,96674.00
2018-07-23T16:10:50.215Z,96680.00
2018-07-23T16:13:18.168Z,96678.00
2018-07-23T16:15:46.099Z,96668.00
2018-07-23T16:18:14.067Z,96682.00
2018-07-23T16:20:42.046Z,96686.00
2018-07-23T16:23:09.983Z,96681.00
2018-07-23T16:25:37.949Z,96670.00
2018-07-23T16:28:06.056Z,96674.00
2018-07-23T16:30:34.035Z,96665.00
2018-07-23T16:33:01.993Z,96674.00
2018-07-23T16:35:29.947Z,96672.00
2018-07-23T16:37:57.910Z,96668.00
2018-07-23T16:40:25.845Z,96669.00
2018-07-23T16:42:53.819Z,96669.00
2018-07-23T16:45:21.758Z,96674.00
2018-07-23T16:47:49.783Z,96669.00
2018-07-23T16:50:17.713Z,96673.00
2018-07-23T16:52:45.631Z,96675.00
2018-07-23T16:55:13.602Z,96675.00
2018-07-23T16:57:47.626Z,96670.00
2018-07-23T17:00:15.634Z,96674.00
2018-07-23T17:02:43.601Z,96669.00
2018-07-23T17:05:11.581Z,96677.00
2018-07-23T17:07:39.520Z,96677.00
2018-07-23T17:10:07.471Z,96682.00
2018-07-23T17:12:35.452Z,96679.00
2018-07-23T17:15:03.428Z,96685.00
2018-07-23T17:17:31.412Z,96683.00
2018-07-23T17:19:59.363Z,96687.00
2018-07-23T17:22:27.376Z,96690.00
2018-07-23T17:24:55.415Z,96681.00
2018-07-23T17:27:23.349Z,96685.00
2018-07-23T17:29:51.302Z,96685.00
2018-07-23T17:32:19.246Z,96678.00
2018-07-23T17:34:47.169Z,96683.00
2018-07-23T17:37:15.133Z,96688.00
2018-07-23T17:39:43.298Z,96688.00
2018-07-23T17:42:11.300Z,96691.00
2018-07-23T17:44:39.249Z,96690.00
2018-07-23T17:47:07.372Z,96683.00
2018-07-23T17:49:35.281Z,96681.00
2018-07-23T17:52:03.230Z,96677.00
2018-07-23T17:54:31.195Z,96694.00
2018-07-23T17:56:59.134Z,96689.00
2018-07-23T17:59:27.069Z,96691.00
2018-07-23T18:01:55.005Z,96700.00
2018-07-23T18:04:22.955Z,96694.00
2018-07-23T18:06:50.880Z,96697.00
2018-07-23T18:09:18.810Z,96697.00
2018-07-23T18:11:46.788Z,96703.00
2018-07-23T18:14:14.705Z,96704.00
2018-07-23T18:16:42.652Z,96719.00
2018-07-23T18:19:10.671Z,96719.00
2018-07-23T18:21:38.710Z,96724.00
2018-07-23T18:24:06.630Z,96725.00
2018-07-23T18:26:36.025Z,96726.00
2018-07-23T18:29:04.130Z,96730.00
2018-07-23T18:31:32.150Z,96736.00
2018-07-23T18:34:00.108Z,96744.00
2018-07-23T18:36:29.532Z,96755.00
2018-07-23T18:39:13.905Z,96769.00
2018-07-23T18:41:41.943Z,96776.00
2018-07-23T18:44:09.894Z,96771.00
2018-07-23T18:46:37.861Z,96776.00
2018-07-23T18:49:49.432Z,96783.00
2018-07-23T18:52:17.980Z,96777.00
2018-07-23T18:54:47.782Z,96785.00
2018-07-23T18:57:15.769Z,96778.00
2018-07-23T18:59:43.740Z,96782.00
2018-07-23T19:02:12.847Z,96782.00
2018-07-23T19:04:40.833Z,96782.00
2018-07-23T19:07:08.960Z,96783.00
2018-07-23T19:09:37.051Z,96787.00
2018-07-23T19:12:05.196Z,96783.00
2018-07-23T19:14:33.171Z,96789.00
2018-07-23T19:17:02.163Z,96783.00
2018-07-23T19:19:30.152Z,96791.00
2018-07-23T19:21:58.148Z,96791.00
2018-07-23T19:24:26.110Z,96790.00
2018-07-23T19:26:54.411Z,96790.00
2018-07-23T19:29:22.380Z,96784.00
2018-07-23T19:31:50.573Z,96789.00
2018-07-23T19:34:18.556Z,96795.00
2018-07-23T19:36:46.582Z,96792.00
2018-07-23T19:39:15.865Z,96798.00
2018-07-23T19:41:51.792Z,96804.00
2018-07-23T19:44:20.079Z,96811.00
2018-07-23T19:46:57.493Z,96802.00
2018-07-23T19:49:27.220Z,96799.00
2018-07-23T19:51:59.694Z,96808.00
2018-07-23T19:54:28.244Z,96806.00
2018-07-23T19:56:56.817Z,96813.00
2018-07-23T19:59:25.770Z,96817.00
2018-07-23T20:01:54.139Z,96807.00
2018-07-23T20:04:23.071Z,96806.00
2018-07-23T20:06:51.066Z,96814.00
2018-07-23T20:09:19.111Z,96804.00
2018-07-23T20:11:49.572Z,96815.00
2018-07-23T20:14:17.584Z,96805.00
2018-07-23T20:16:45.519Z,96809.00
2018-07-23T20:19:23.227Z,96813.00
2018-07-23T20:21:53.483Z,96811.00
2018-07-23T20:24:22.078Z,96807.00
2018-07-23T20:27:04.778Z,96805.00
2018-07-23T20:29:38.737Z,96800.00
2018-07-23T20:32:07.998Z,96792.00
2018-07-23T20:34:53.968Z,96801.00
2018-07-23T20:37:24.305Z,96799.00
2018-07-23T20:39:52.943Z,96796.00
2018-07-23T20:42:23.780Z,96798.00
2018-07-23T20:44:57.835Z,96803.00
2018-07-23T20:47:27.498Z,96795.00
2018-07-23T20:50:01.750Z,96797.00
2018-07-23T20:52:37.458Z,96799.00
2018-07-23T20:55:07.026Z,96795.00
2018-07-23T20:57:48.578Z,96790.00
2018-07-23T21:00:24.334Z,96793.00
2018-07-23T21:02:59.582Z,96799.00
2018-07-23T21:05:32.741Z,96795.00
2018-07-23T21:08:12.910Z,96794.00
2018-07-23T21:10:42.151Z,96799.00
2018-07-23T21:13:16.705Z,96800.00
2018-07-23T21:15:50.036Z,96791.00
2018-07-23T21:18:20.779Z,96793.00
2018-07-23T21:20:50.910Z,96793.00
2018-07-23T21:23:23.561Z,96788.00
2018-07-23T21:25:54.687Z,96791.00
2018-07-23T21:28:28.833Z,96788.00
2018-07-23T21:31:00.665Z,96795.00
2018-07-23T21:33:35.373Z,96791.00
2018-07-23T21:36:05.659Z,96787.00
2018-07-23T21:38:34.707Z,96787.00
2018-07-23T21:41:04.556Z,96783.00
2018-07-23T21:43:32.993Z,96797.00
2018-07-23T21:46:04.255Z,96794.00
2018-07-23T21:48:34.913Z,96782.00
2018-07-23T21:51:03.736Z,96791.00
2018-07-23T21:53:33.630Z,96792.00
2018-07-23T21:56:03.478Z,96795.00
2018-07-23T21:58:31.596Z,96792.00
2018-07-23T22:00:59.566Z,96792.00
2018-07-23T22:03:27.547Z,96793.00
2018-07-23T22:05:55.539Z,96786.00
2018-07-23T22:08:23.531Z,96791.00
2018-07-23T22:10:51.567Z,96786.00
2018-07-23T22:13:19.518Z,96793.00
2018-07-23T22:15:47.503Z,96782.00
2018-07-23T22:18:15.511Z,96790.00
2018-07-23T22:20:43.502Z,96784.00
2018-07-23T22:23:11.479Z,96787.00
2018-07-23T22:25:39.476Z,96786.00
2018-07-23T22:28:07.401Z,96796.00
2018-07-23T22:30:35.383Z,96788.00
2018-07-23T22:33:03.379Z,96785.00
2018-07-23T22:35:31.459Z,96781.00
2018-07-23T22:37:59.433Z,96784.00
2018-07-23T22:40:27.537Z,96782.00
2018-07-23T22:42:55.537Z,96775.00
2018-07-23T22:45:23.500Z,96776.00
2018-07-23T22:47:51.452Z,96783.00
2018-07-23T22:50:19.483Z,96769.00
2018-07-23T22:52:47.539Z,96768.00
2018-07-23T22:55:15.522Z,96766.00
2018-07-23T22:57:43.719Z,96766.00
2018-07-23T23:00:11.622Z,96756.00
2018-07-23T23:02:39.628Z,96754.00
2018-07-23T23:05:08.083Z,96759.00
2018-07-23T23:07:36.004Z,96751.00
2018-07-23T23:10:04.059Z,96747.00
2018-07-23T23:12:32.124Z,96734.00
2018-07-23T23:15:00.165Z,96750.00
2018-07-23T23:17:28.147Z,96736.00
2018-07-23T23:19:56.159Z,96739.00
2018-07-23T23:22:24.222Z,96722.00
2018-07-23T23:24:52.221Z,96730.00
2018-07-23T23:27:20.147Z,96727.00
2018-07-23T23:29:48.115Z,96723.00
2018-07-23T23:32:16.301Z,96718.00
2018-07-23T23:34:44.264Z,96728.00
2018-07-23T23:37:12.267Z,96717.00
2018-07-23T23:39:40.269Z,96723.00
2018-07-23T23:42:09.319Z,96715.00
2018-07-23T23:44:37.284Z,96718.00
2018-07-23T23:47:05.250Z,96714.00
2018-07-23T23:49:33.389Z,96719.00
2018-07-23T23:52:01.340Z,96712.00
2018-07-23T23:54:29.409Z,96722.00
2018-07-23T23:56:57.370Z,96717.00
2018-07-23T23:59:25.290Z,96717.00
